createdAt,value
2023-04-02T00:02:22.509Z,6.35
2023-04-02T00:05:19.486Z,6.35
2023-04-02T00:07:51.816Z,6.36
2023-04-02T00:10:30.803Z,6.38
2023-04-02T00:13:17.941Z,6.38
2023-04-02T00:15:49.259Z,6.33
2023-04-02T00:18:22.074Z,6.30
2023-04-02T00:20:58.125Z,6.28
2023-04-02T00:23:26.896Z,6.24
2023-04-02T00:25:53.566Z,6.25
2023-04-02T00:28:23.471Z,6.24
2023-04-02T00:30:54.119Z,6.26
2023-04-02T00:33:24.226Z,6.27
2023-04-02T00:35:53.329Z,6.21
2023-04-02T00:38:25.822Z,6.22
2023-04-02T00:40:56.583Z,6.15
2023-04-02T00:43:26.566Z,6.13
2023-04-02T00:45:56.729Z,6.12
2023-04-02T00:48:33.618Z,6.11
2023-04-02T00:51:01.693Z,6.07
2023-04-02T00:53:31.030Z,6.01
2023-04-02T00:55:59.191Z,5.95
2023-04-02T00:58:31.860Z,5.93
2023-04-02T01:00:59.770Z,5.89
2023-04-02T01:03:36.571Z,5.89
2023-04-02T01:06:11.566Z,5.91
2023-04-02T01:09:06.891Z,5.90
2023-04-02T01:11:54.919Z,5.88
2023-04-02T01:14:45.878Z,5.72
2023-04-02T01:17:26.528Z,5.74
2023-04-02T01:20:08.320Z,5.68
2023-04-02T01:22:51.245Z,5.65
2023-04-02T01:25:26.764Z,5.63
2023-04-02T01:28:05.717Z,5.60
2023-04-02T01:30:36.693Z,5.54
2023-04-02T01:33:05.654Z,5.50
2023-04-02T01:35:38.906Z,5.44
2023-04-02T01:38:25.906Z,5.34
2023-04-02T01:41:24.345Z,5.31
2023-04-02T01:44:14.249Z,5.31
2023-04-02T01:46:42.483Z,5.30
2023-04-02T01:49:15.974Z,5.33
2023-04-02T01:51:46.347Z,5.30
2023-04-02T01:54:16.557Z,5.33
2023-04-02T01:56:44.432Z,5.32
2023-04-02T01:59:12.260Z,5.30
2023-04-02T02:01:45.372Z,5.26
2023-04-02T02:04:16.197Z,5.28
2023-04-02T02:06:44.028Z,5.23
2023-04-02T02:09:19.823Z,5.22
2023-04-02T02:11:46.933Z,5.24
2023-04-02T02:14:19.679Z,5.24
2023-04-02T02:16:47.725Z,5.22
2023-04-02T02:19:28.824Z,5.22
2023-04-02T02:22:05.397Z,5.22
2023-04-02T02:24:35.803Z,5.18
2023-04-02T02:27:09.332Z,5.21
2023-04-02T02:29:38.419Z,5.22
2023-04-02T02:32:09.485Z,5.20
2023-04-02T02:34:46.129Z,5.23
2023-04-02T02:37:19.267Z,5.23
2023-04-02T02:39:52.192Z,5.18
2023-04-02T02:42:28.834Z,5.16
2023-04-02T02:44:58.086Z,5.09
2023-04-02T02:47:32.030Z,5.04
2023-04-02T02:50:03.763Z,4.95
2023-04-02T02:52:38.825Z,4.91
2023-04-02T02:55:10.334Z,4.89
2023-04-02T02:57:42.502Z,4.88
2023-04-02T03:00:11.849Z,4.82
2023-04-02T03:02:41.702Z,4.80
2023-04-02T03:05:09.381Z,4.81
2023-04-02T03:07:37.470Z,4.86
2023-04-02T03:10:19.971Z,4.85
2023-04-02T03:13:14.675Z,4.80
2023-04-02T03:16:06.828Z,4.73
2023-04-02T03:18:42.720Z,4.69
2023-04-02T03:21:31.521Z,4.69
2023-04-02T03:24:02.153Z,4.66
2023-04-02T03:26:38.080Z,4.60
2023-04-02T03:29:21.207Z,4.54
2023-04-02T03:31:54.915Z,4.45
2023-04-02T03:34:26.776Z,4.39
2023-04-02T03:37:02.228Z,4.34
2023-04-02T03:39:43.676Z,4.27
2023-04-02T03:42:12.975Z,4.21
2023-04-02T03:44:54.077Z,4.20
2023-04-02T03:47:46.750Z,4.22
2023-04-02T03:50:34.538Z,4.18
2023-04-02T03:53:03.699Z,4.13
2023-04-02T03:55:35.034Z,4.08
2023-04-02T03:58:14.041Z,4.08
2023-04-02T04:00:55.619Z,4.04
2023-04-02T04:03:37.387Z,4.05
2023-04-02T04:06:11.919Z,4.03
2023-04-02T04:08:45.817Z,3.96
2023-04-02T04:11:19.864Z,3.93
2023-04-02T04:14:11.755Z,3.95
2023-04-02T04:17:14.081Z,3.94
2023-04-02T04:19:55.088Z,3.86
2023-04-02T04:22:33.898Z,3.85
2023-04-02T04:25:05.826Z,3.81
2023-04-02T04:27:58.679Z,3.84
2023-04-02T04:30:34.959Z,3.89
2023-04-02T04:33:12.835Z,3.81
2023-04-02T04:35:45.884Z,3.80
2023-04-02T04:38:15.662Z,3.80
2023-04-02T04:40:52.589Z,3.84
2023-04-02T04:43:33.741Z,3.83
2023-04-02T04:46:05.607Z,3.77
2023-04-02T04:48:42.631Z,3.69
2023-04-02T04:51:25.617Z,3.65
2023-04-02T04:53:55.453Z,3.63
2023-04-02T04:56:27.488Z,3.61
2023-04-02T04:59:01.947Z,3.53
2023-04-02T05:01:37.919Z,3.49
2023-04-02T05:04:04.590Z,3.43
2023-04-02T05:06:57.338Z,3.44
2023-04-02T05:09:50.371Z,3.50
2023-04-02T05:12:38.971Z,3.47
2023-04-02T05:15:16.928Z,3.41
2023-04-02T05:18:21.076Z,3.35
2023-04-02T05:21:07.016Z,3.36
2023-04-02T05:24:00.296Z,3.36
2023-04-02T05:26:34.005Z,3.36
2023-04-02T05:29:20.200Z,3.36
2023-04-02T05:32:00.490Z,3.41
2023-04-02T05:34:32.545Z,3.41
2023-04-02T05:36:59.400Z,3.40
2023-04-02T05:39:27.408Z,3.40
2023-04-02T05:42:15.798Z,3.41
2023-04-02T05:44:56.201Z,3.40
2023-04-02T05:47:29.681Z,3.39
2023-04-02T05:50:05.882Z,3.31
2023-04-02T05:52:38.190Z,3.31
2023-04-02T05:55:22.364Z,3.36
2023-04-02T05:58:21.490Z,3.36
2023-04-02T06:00:54.705Z,3.39
2023-04-02T06:03:27.336Z,3.36
2023-04-02T06:06:00.578Z,3.38
2023-04-02T06:08:36.885Z,3.38
2023-04-02T06:11:37.741Z,3.36
2023-04-02T06:14:04.844Z,3.34
2023-04-02T06:16:34.375Z,3.34
2023-04-02T06:19:01.542Z,3.31
2023-04-02T06:21:28.251Z,3.32
2023-04-02T06:24:04.856Z,3.33
2023-04-02T06:26:41.930Z,3.38
2023-04-02T06:29:18.495Z,3.35
2023-04-02T06:31:57.404Z,3.33
2023-04-02T06:34:26.731Z,3.37
2023-04-02T06:37:00.819Z,3.44
2023-04-02T06:39:28.206Z,3.46
2023-04-02T06:42:20.728Z,3.45
2023-04-02T06:44:47.766Z,3.48
2023-04-02T06:47:42.890Z,3.54
2023-04-02T06:50:23.093Z,3.56
2023-04-02T06:52:56.753Z,3.52
2023-04-02T06:55:41.745Z,3.52
2023-04-02T06:58:09.518Z,3.62
2023-04-02T07:00:46.210Z,3.73
2023-04-02T07:03:23.382Z,3.83
2023-04-02T07:05:50.106Z,3.92
2023-04-02T07:08:17.006Z,4.04
2023-04-02T07:10:43.906Z,4.15
2023-04-02T07:13:19.917Z,4.22
2023-04-02T07:15:50.357Z,4.23
2023-04-02T07:18:27.296Z,4.26
2023-04-02T07:20:54.043Z,4.24
2023-04-02T07:23:21.340Z,4.36
2023-04-02T07:25:57.101Z,4.48
2023-04-02T07:28:24.137Z,4.53
2023-04-02T07:30:52.108Z,4.56
2023-04-02T07:33:24.359Z,4.46
2023-04-02T07:35:52.992Z,4.36
2023-04-02T07:38:19.704Z,4.31
2023-04-02T07:40:46.573Z,4.28
2023-04-02T07:43:13.330Z,4.30
2023-04-02T07:45:40.138Z,4.41
2023-04-02T07:48:09.056Z,4.39
2023-04-02T07:50:36.684Z,4.33
2023-04-02T07:53:03.797Z,4.32
2023-04-02T07:55:31.369Z,4.27
2023-04-02T07:57:59.774Z,4.26
2023-04-02T08:00:29.016Z,4.21
2023-04-02T08:02:56.255Z,4.20
2023-04-02T08:05:23.194Z,4.28
2023-04-02T08:07:57.072Z,4.28
2023-04-02T08:10:24.463Z,4.28
2023-04-02T08:12:57.375Z,4.25
2023-04-02T08:15:24.005Z,4.32
2023-04-02T08:17:51.481Z,4.32
2023-04-02T08:20:21.002Z,4.32
2023-04-02T08:22:49.731Z,4.35
2023-04-02T08:25:17.183Z,4.36
2023-04-02T08:27:48.038Z,4.26
2023-04-02T08:30:17.596Z,4.25
2023-04-02T08:32:44.646Z,4.36
2023-04-02T08:35:13.573Z,4.46
2023-04-02T08:37:41.530Z,4.57
2023-04-02T08:40:18.894Z,4.71
2023-04-02T08:43:28.956Z,5.04
2023-04-02T08:46:23.595Z,5.33
2023-04-02T08:48:57.053Z,5.55
2023-04-02T08:51:30.790Z,5.86
2023-04-02T08:54:08.888Z,6.19
2023-04-02T08:56:52.024Z,6.41
2023-04-02T08:59:38.325Z,6.52
2023-04-02T09:02:14.080Z,6.67
2023-04-02T09:04:41.679Z,6.68
2023-04-02T09:07:16.799Z,6.55
2023-04-02T09:09:46.759Z,6.50
2023-04-02T09:12:19.480Z,6.62
2023-04-02T09:15:29.442Z,6.77
2023-04-02T09:18:13.131Z,6.86
2023-04-02T09:20:40.489Z,6.74
2023-04-02T09:23:16.380Z,6.65
2023-04-02T09:26:02.929Z,6.64
2023-04-02T09:28:31.035Z,6.62
2023-04-02T09:31:16.468Z,6.59
2023-04-02T09:33:49.478Z,6.59
2023-04-02T09:36:33.916Z,6.51
2023-04-02T09:39:19.093Z,6.38
2023-04-02T09:41:55.719Z,6.24
2023-04-02T09:44:31.612Z,6.16
2023-04-02T09:47:05.871Z,6.19
2023-04-02T09:49:38.467Z,6.24
2023-04-02T09:52:19.224Z,6.37
2023-04-02T09:54:46.777Z,6.30
2023-04-02T09:57:25.232Z,6.13
2023-04-02T10:00:29.776Z,6.12
2023-04-02T10:03:07.106Z,6.19
2023-04-02T10:08:28.178Z,6.43
2023-04-02T10:10:58.885Z,6.55
2023-04-02T10:13:31.242Z,6.51
2023-04-02T10:16:17.900Z,6.63
2023-04-02T10:18:47.504Z,6.76
2023-04-02T10:21:25.323Z,6.90
2023-04-02T10:23:52.281Z,7.01
2023-04-02T10:26:37.886Z,7.12
2023-04-02T10:29:31.658Z,7.29
2023-04-02T10:32:15.051Z,7.34
2023-04-02T10:34:56.557Z,7.29
2023-04-02T10:37:41.527Z,7.39
2023-04-02T10:40:35.677Z,7.43
2023-04-02T10:43:08.163Z,7.20
2023-04-02T10:46:12.099Z,7.15
2023-04-02T10:48:54.259Z,7.22
2023-04-02T10:51:46.487Z,7.41
2023-04-02T10:54:33.698Z,7.61
2023-04-02T10:57:26.820Z,7.82
2023-04-02T11:00:00.897Z,7.86
2023-04-02T11:02:49.687Z,7.82
2023-04-02T11:05:34.905Z,7.58
2023-04-02T11:08:16.023Z,7.56
2023-04-02T11:10:48.396Z,7.52
2023-04-02T11:13:33.832Z,7.56
2023-04-02T11:16:00.678Z,7.64
2023-04-02T11:18:35.931Z,7.71
2023-04-02T11:21:08.213Z,7.66
2023-04-02T11:23:39.746Z,7.74
2023-04-02T11:26:34.961Z,7.86
2023-04-02T11:29:28.200Z,7.96
2023-04-02T11:32:36.854Z,8.05
2023-04-02T11:35:43.730Z,8.14
2023-04-02T11:38:46.482Z,8.23
2023-04-02T11:41:13.134Z,8.33
2023-04-02T11:43:41.520Z,8.40
2023-04-02T11:46:17.340Z,8.47
2023-04-02T11:48:44.484Z,8.56
2023-04-02T11:51:23.403Z,8.71
2023-04-02T11:53:53.885Z,8.77
2023-04-02T11:56:50.617Z,8.78
2023-04-02T11:59:41.424Z,8.79
2023-04-02T12:02:17.183Z,8.82
2023-04-02T12:05:37.824Z,8.78
2023-04-02T12:08:57.110Z,8.72
2023-04-02T12:11:39.662Z,8.73
2023-04-02T12:14:45.985Z,8.75
2023-04-02T12:17:32.564Z,8.68
2023-04-02T12:20:20.606Z,8.69
2023-04-02T12:22:53.651Z,8.74
2023-04-02T12:25:32.340Z,8.75
2023-04-02T12:28:06.579Z,8.85
2023-04-02T12:30:33.848Z,8.86
2023-04-02T12:33:22.299Z,8.90
2023-04-02T12:35:57.863Z,8.84
2023-04-02T12:38:28.062Z,8.78
2023-04-02T12:41:03.816Z,8.84
2023-04-02T12:43:40.187Z,8.91
2023-04-02T12:46:09.074Z,8.99
2023-04-02T12:48:36.511Z,9.05
2023-04-02T12:51:04.293Z,8.98
2023-04-02T12:53:39.300Z,9.00
2023-04-02T12:56:08.286Z,9.12
2023-04-02T12:58:42.950Z,9.22
2023-04-02T13:01:28.408Z,9.20
2023-04-02T13:04:12.531Z,9.15
2023-04-02T13:06:41.846Z,9.11
2023-04-02T13:09:30.200Z,9.10
2023-04-02T13:11:57.755Z,8.94
2023-04-02T13:14:25.264Z,9.03
2023-04-02T13:16:52.294Z,9.00
2023-04-02T13:19:23.148Z,9.07
2023-04-02T13:21:50.429Z,9.12
2023-04-02T13:24:22.518Z,9.08
2023-04-02T13:26:50.547Z,9.13
2023-04-02T13:29:19.779Z,9.23
2023-04-02T13:31:46.597Z,9.29
2023-04-02T13:34:13.369Z,9.38
2023-04-02T13:36:39.976Z,9.38
2023-04-02T13:39:06.791Z,9.45
2023-04-02T13:41:48.895Z,9.44
2023-04-02T13:44:25.641Z,9.48
2023-04-02T13:46:53.493Z,9.55
2023-04-02T13:49:20.977Z,9.53
2023-04-02T13:51:52.506Z,9.50
2023-04-02T13:54:22.031Z,9.47
2023-04-02T13:56:48.736Z,9.45
2023-04-02T13:59:16.337Z,9.46
2023-04-02T14:01:45.661Z,9.50
2023-04-02T14:04:17.741Z,9.52
2023-04-02T14:06:59.520Z,9.56
2023-04-02T14:09:33.845Z,9.63
2023-04-02T14:12:26.943Z,9.59
2023-04-02T14:15:11.098Z,9.55
2023-04-02T14:18:23.815Z,9.60
2023-04-02T14:21:32.016Z,9.53
2023-04-02T14:24:17.307Z,9.55
2023-04-02T14:26:59.196Z,9.60
2023-04-02T14:29:41.467Z,9.65
2023-04-02T14:32:20.498Z,9.58
2023-04-02T14:34:55.083Z,9.57
2023-04-02T14:37:45.870Z,9.60
2023-04-02T14:40:31.861Z,9.60
2023-04-02T14:43:15.693Z,9.65
2023-04-02T14:45:54.543Z,9.69
2023-04-02T14:48:36.155Z,9.74
2023-04-02T14:51:29.337Z,9.73
2023-04-02T14:54:04.811Z,9.74
2023-04-02T14:56:39.413Z,9.76
2023-04-02T14:59:14.111Z,9.74
2023-04-02T15:01:45.493Z,9.74
2023-04-02T15:04:17.015Z,9.75
2023-04-02T15:06:49.513Z,9.76
2023-04-02T15:09:42.594Z,9.85
2023-04-02T15:12:32.801Z,9.91
2023-04-02T15:15:08.742Z,9.85
2023-04-02T15:17:36.240Z,9.84
2023-04-02T15:20:14.568Z,9.81
2023-04-02T15:23:07.221Z,9.80
2023-04-02T15:25:43.651Z,9.81
2023-04-02T15:28:26.748Z,9.80
2023-04-02T15:30:59.749Z,9.80
2023-04-02T15:33:41.406Z,9.86
2023-04-02T15:36:23.118Z,9.88
2023-04-02T15:38:58.072Z,9.85
2023-04-02T15:41:39.091Z,9.85
2023-04-02T15:44:15.959Z,9.81
2023-04-02T15:47:12.300Z,9.84
2023-04-02T15:50:09.845Z,9.86
2023-04-02T15:53:00.794Z,9.92
2023-04-02T15:55:38.565Z,9.92
2023-04-02T15:58:59.194Z,9.86
2023-04-02T16:01:37.352Z,9.90
2023-04-02T16:04:19.282Z,9.90
2023-04-02T16:06:56.677Z,9.87
2023-04-02T16:10:09.822Z,9.84
2023-04-02T16:12:38.318Z,9.82
2023-04-02T16:15:24.940Z,9.81
2023-04-02T16:18:01.201Z,9.81
2023-04-02T16:20:43.880Z,9.80
2023-04-02T16:23:22.211Z,9.79
2023-04-02T16:26:02.573Z,9.74
2023-04-02T16:28:54.078Z,9.76
2023-04-02T16:31:28.614Z,9.76
2023-04-02T16:33:59.785Z,9.71
2023-04-02T16:36:29.624Z,9.72
2023-04-02T16:39:34.829Z,9.72
2023-04-02T16:42:09.113Z,9.70
2023-04-02T16:44:51.033Z,9.68
2023-04-02T16:47:47.398Z,9.65
2023-04-02T16:50:40.984Z,9.62
2023-04-02T16:53:22.831Z,9.59
2023-04-02T16:55:49.320Z,9.53
2023-04-02T16:58:21.825Z,9.53
2023-04-02T17:00:54.591Z,9.49
2023-04-02T17:03:43.611Z,9.47
2023-04-02T17:06:12.983Z,9.43
2023-04-02T17:08:44.122Z,9.44
2023-04-02T17:11:21.383Z,9.41
2023-04-02T17:14:06.532Z,9.40
2023-04-02T17:16:39.435Z,9.36
2023-04-02T17:19:16.156Z,9.33
2023-04-02T17:21:47.343Z,9.29
2023-04-02T17:24:17.146Z,9.26
2023-04-02T17:26:47.831Z,9.24
2023-04-02T17:29:23.679Z,9.18
2023-04-02T17:31:52.212Z,9.12
2023-04-02T17:34:23.884Z,9.09
2023-04-02T17:37:38.343Z,9.02
2023-04-02T17:40:23.951Z,9.00
2023-04-02T17:43:34.097Z,8.90
2023-04-02T17:46:48.536Z,8.84
2023-04-02T17:49:31.804Z,8.79
2023-04-02T17:52:06.285Z,8.72
2023-04-02T17:54:44.983Z,8.67
2023-04-02T17:57:11.552Z,8.61
2023-04-02T17:59:53.626Z,8.54
2023-04-02T18:02:47.658Z,8.47
2023-04-02T18:05:45.480Z,8.37
2023-04-02T18:08:34.308Z,8.31
2023-04-02T18:11:11.282Z,8.25
2023-04-02T18:14:25.099Z,8.21
2023-04-02T18:17:12.082Z,8.15
2023-04-02T18:19:57.029Z,8.10
2023-04-02T18:22:33.597Z,8.04
2023-04-02T18:25:33.075Z,7.98
2023-04-02T18:28:33.549Z,7.92
2023-04-02T18:31:06.180Z,7.87
2023-04-02T18:33:54.938Z,7.79
2023-04-02T18:37:01.615Z,7.70
2023-04-02T18:39:43.905Z,7.65
2023-04-02T18:42:35.117Z,7.60
2023-04-02T18:45:22.577Z,7.56
2023-04-02T18:47:58.603Z,7.54
2023-04-02T18:50:32.614Z,7.53
2023-04-02T18:53:05.797Z,7.50
2023-04-02T18:55:32.524Z,7.51
2023-04-02T18:58:06.253Z,7.49
2023-04-02T19:00:38.277Z,7.49
2023-04-02T19:03:14.950Z,7.49
2023-04-02T19:05:47.348Z,7.52
2023-04-02T19:08:19.617Z,7.51
2023-04-02T19:10:51.916Z,7.49
2023-04-02T19:13:20.823Z,7.49
2023-04-02T19:16:09.285Z,7.49
2023-04-02T19:18:59.843Z,7.48
2023-04-02T19:21:54.057Z,7.49
2023-04-02T19:24:34.215Z,7.49
2023-04-02T19:27:03.916Z,7.49
2023-04-02T19:29:39.914Z,7.52
2023-04-02T19:32:31.034Z,7.53
2023-04-02T19:35:36.159Z,7.55
2023-04-02T19:38:22.332Z,7.57
2023-04-02T19:41:05.608Z,7.57
2023-04-02T19:43:32.396Z,7.59
2023-04-02T19:46:02.317Z,7.59
2023-04-02T19:48:43.366Z,7.59
2023-04-02T19:51:10.195Z,7.60
2023-04-02T19:53:37.635Z,7.58
2023-04-02T19:56:04.571Z,7.57
2023-04-02T19:58:33.623Z,7.55
2023-04-02T20:01:01.576Z,7.54
2023-04-02T20:03:30.517Z,7.53
2023-04-02T20:05:59.612Z,7.52
2023-04-02T20:08:27.902Z,7.51
2023-04-02T20:10:55.811Z,7.49
2023-04-02T20:13:22.382Z,7.46
2023-04-02T20:15:49.796Z,7.46
2023-04-02T20:18:16.486Z,7.43
2023-04-02T20:20:46.287Z,7.43
2023-04-02T20:23:13.086Z,7.41
2023-04-02T20:25:52.758Z,7.36
2023-04-02T20:28:21.005Z,7.34
2023-04-02T20:30:50.275Z,7.32
2023-04-02T20:33:18.439Z,7.28
2023-04-02T20:35:45.604Z,7.28
2023-04-02T20:38:12.660Z,7.25
2023-04-02T20:40:41.555Z,7.24
2023-04-02T20:43:09.541Z,7.18
2023-04-02T20:45:37.380Z,7.17
2023-04-02T20:48:04.482Z,7.11
2023-04-02T20:50:31.215Z,7.06
2023-04-02T20:53:00.070Z,7.04
2023-04-02T20:55:26.960Z,6.96
2023-04-02T20:57:53.727Z,6.90
2023-04-02T21:00:21.201Z,6.82
2023-04-02T21:02:47.925Z,6.77
2023-04-02T21:05:14.614Z,6.71
2023-04-02T21:07:41.343Z,6.63
2023-04-02T21:10:08.245Z,6.61
2023-04-02T21:12:34.910Z,6.54
2023-04-02T21:15:02.705Z,6.48
2023-04-02T21:17:29.975Z,6.44
2023-04-02T21:19:56.652Z,6.38
2023-04-02T21:22:23.920Z,6.34
2023-04-02T21:24:50.585Z,6.30
2023-04-02T21:27:17.388Z,6.26
2023-04-02T21:29:45.630Z,6.21
2023-04-02T21:32:21.322Z,6.17
2023-04-02T21:34:48.558Z,6.12
2023-04-02T21:37:15.558Z,6.06
2023-04-02T21:39:42.140Z,6.05
2023-04-02T21:42:08.864Z,5.99
2023-04-02T21:44:36.129Z,5.93
2023-04-02T21:47:02.919Z,5.89
2023-04-02T21:49:29.811Z,5.85
2023-04-02T21:51:56.561Z,5.83
2023-04-02T21:54:23.223Z,5.76
2023-04-02T21:56:50.442Z,5.71
2023-04-02T21:59:18.471Z,5.68
2023-04-02T22:01:48.722Z,5.62
2023-04-02T22:04:20.707Z,5.60
2023-04-02T22:06:48.048Z,5.57
2023-04-02T22:09:22.411Z,5.53
2023-04-02T22:11:52.812Z,5.49
2023-04-02T22:14:19.564Z,5.46
2023-04-02T22:16:46.401Z,5.42
2023-04-02T22:19:15.296Z,5.36
2023-04-02T22:21:43.248Z,5.34
2023-04-02T22:24:14.799Z,5.29
2023-04-02T22:26:42.245Z,5.26
2023-04-02T22:29:09.317Z,5.22
2023-04-02T22:31:36.867Z,5.17
2023-04-02T22:34:05.563Z,5.12
2023-04-02T22:36:32.858Z,5.10
2023-04-02T22:39:01.530Z,5.07
2023-04-02T22:41:29.461Z,5.05
2023-04-02T22:43:57.929Z,5.02
2023-04-02T22:46:26.784Z,4.97
2023-04-02T22:48:55.752Z,4.92
2023-04-02T22:51:24.393Z,4.89
2023-04-02T22:53:54.095Z,4.86
2023-04-02T22:56:23.961Z,4.84
2023-04-02T22:58:50.763Z,4.82
2023-04-02T23:01:21.598Z,4.80
2023-04-02T23:03:49.267Z,4.77
2023-04-02T23:06:17.928Z,4.73
2023-04-02T23:08:45.672Z,4.71
2023-04-02T23:11:18.009Z,4.69
2023-04-02T23:13:47.549Z,4.67
2023-04-02T23:16:14.816Z,4.63
2023-04-02T23:18:47.292Z,4.62
2023-04-02T23:21:14.312Z,4.58
2023-04-02T23:23:41.412Z,4.53
2023-04-02T23:26:08.006Z,4.50
2023-04-02T23:28:36.179Z,4.46
2023-04-02T23:31:04.914Z,4.45
2023-04-02T23:33:32.247Z,4.44
2023-04-02T23:35:59.054Z,4.42
2023-04-02T23:38:26.795Z,4.37
2023-04-02T23:40:53.723Z,4.35
2023-04-02T23:43:20.514Z,4.33
2023-04-02T23:45:49.187Z,4.30
2023-04-02T23:48:16.381Z,4.27
2023-04-02T23:50:45.504Z,4.25
2023-04-02T23:53:13.318Z,4.24
2023-04-02T23:55:40.656Z,4.20
2023-04-02T23:58:07.355Z,4.19
